Time;durP1;ratioP1;P1;durP2;ratioP2;P2;SDS_P1;SDS_P2;PMS_P1;PMS_P2;Temp;Humidity;BMP_temperature;BMP_pressure;BME280_temperature;BME280_humidity;BME280_pressure;Samples;Min_cycle;Max_cycle;Signal;HPM_P1;HPM_P2
2022/07/07 00:02:15;;;;;;;2.47;2.03;;;18.70;99.90;;;;;;5072740;28;20698;-73
2022/07/07 00:04:41;;;;;;;3.17;1.87;;;18.60;99.90;;;;;;5071004;28;20170;-72
2022/07/07 00:07:06;;;;;;;3.00;2.27;;;18.60;99.90;;;;;;5072351;28;20273;-72
2022/07/07 00:09:32;;;;;;;1.63;1.40;;;18.70;99.90;;;;;;5072178;28;20221;-72
2022/07/07 00:11:58;;;;;;;2.70;2.40;;;18.70;99.90;;;;;;5070976;28;20173;-74
2022/07/07 00:14:24;;;;;;;2.50;2.00;;;18.70;99.90;;;;;;5071772;28;20173;-73
2022/07/07 00:16:50;;;;;;;1.90;1.80;;;18.70;99.90;;;;;;5072020;28;20868;-73
2022/07/07 00:19:15;;;;;;;4.60;2.30;;;18.70;99.90;;;;;;5072114;28;20471;-73
2022/07/07 00:21:41;;;;;;;9.90;2.03;;;18.70;99.90;;;;;;5072156;28;20253;-73
2022/07/07 00:24:07;;;;;;;1.60;1.50;;;18.70;99.90;;;;;;5072315;28;20171;-73
2022/07/07 00:26:33;;;;;;;2.27;2.07;;;18.70;99.90;;;;;;5070358;28;20179;-73
2022/07/07 00:28:58;;;;;;;2.60;2.00;;;18.70;99.90;;;;;;5072001;28;20194;-72
2022/07/07 00:31:24;;;;;;;2.53;2.33;;;18.70;99.90;;;;;;5074275;28;20163;-73
2022/07/07 00:33:50;;;;;;;2.53;2.03;;;18.70;99.90;;;;;;5076739;28;20167;-73
2022/07/07 00:36:15;;;;;;;2.53;2.27;;;18.70;99.90;;;;;;5075694;28;20173;-73
2022/07/07 00:38:41;;;;;;;2.63;1.83;;;18.70;99.90;;;;;;5074362;28;20251;-72
2022/07/07 00:41:07;;;;;;;6.13;2.10;;;18.70;99.90;;;;;;5074958;28;20174;-72
2022/07/07 00:43:40;;;;;;;2.27;2.03;;;18.70;99.90;;;;;;5074980;28;20182;-70
2022/07/07 00:46:07;;;;;;;2.10;1.90;;;18.70;99.90;;;;;;5074810;28;20400;-72
2022/07/07 00:48:35;;;;;;;2.70;2.13;;;18.70;99.90;;;;;;5074824;28;20980;-72
2022/07/07 00:51:03;;;;;;;4.57;2.07;;;18.70;99.90;;;;;;5074241;28;20413;-72
2022/07/07 00:53:28;;;;;;;3.20;1.97;;;18.70;99.90;;;;;;5075710;28;20424;-72
2022/07/07 00:55:54;;;;;;;5.30;2.27;;;18.70;99.90;;;;;;5075486;28;20400;-73
2022/07/07 00:58:19;;;;;;;3.53;2.77;;;18.70;99.90;;;;;;5075267;28;20190;-72
2022/07/07 01:00:45;;;;;;;2.53;2.13;;;18.70;99.90;;;;;;5073723;28;20210;-72
2022/07/07 01:03:11;;;;;;;3.77;2.27;;;18.60;99.90;;;;;;5074068;28;20197;-73
2022/07/07 01:05:37;;;;;;;3.10;1.97;;;18.60;99.90;;;;;;5074553;28;20470;-73
2022/07/07 01:08:08;;;;;;;9.13;2.37;;;18.50;99.90;;;;;;5073288;28;20202;-73
2022/07/07 01:10:34;;;;;;;3.40;1.77;;;18.40;99.90;;;;;;5074651;28;20435;-73
2022/07/07 01:13:04;;;;;;;2.90;2.23;;;18.40;99.90;;;;;;5073455;28;20448;-72
2022/07/07 01:15:30;;;;;;;3.57;2.93;;;18.40;99.90;;;;;;5074245;28;20416;-72
2022/07/07 01:17:56;;;;;;;2.17;1.97;;;18.40;99.90;;;;;;5075230;28;20397;-73
2022/07/07 01:20:22;;;;;;;3.10;1.70;;;18.30;99.90;;;;;;5075255;28;20752;-73
2022/07/07 01:22:51;;;;;;;3.23;2.50;;;18.30;99.90;;;;;;5074103;28;20413;-73
2022/07/07 01:25:17;;;;;;;3.07;1.77;;;18.30;99.90;;;;;;5074234;28;20466;-72
2022/07/07 01:27:42;;;;;;;2.83;2.30;;;18.30;99.90;;;;;;5074251;28;20456;-72
2022/07/07 01:30:08;;;;;;;3.50;2.13;;;18.20;99.90;;;;;;5074258;28;20400;-73
2022/07/07 01:32:34;;;;;;;2.83;1.97;;;18.20;99.90;;;;;;5074150;28;20197;-75
2022/07/07 01:35:00;;;;;;;6.10;2.00;;;18.20;99.90;;;;;;5073938;28;20395;-74
2022/07/07 01:37:25;;;;;;;2.47;2.07;;;18.20;99.90;;;;;;5074187;28;20166;-72
2022/07/07 01:39:52;;;;;;;3.70;2.07;;;18.20;99.90;;;;;;5073984;28;20226;-72
2022/07/07 01:42:17;;;;;;;2.07;1.67;;;18.30;99.90;;;;;;5074123;28;20228;-73
2022/07/07 01:44:44;;;;;;;5.47;2.73;;;18.40;99.90;;;;;;5073781;28;20816;-73
2022/07/07 01:47:11;;;;;;;2.47;1.97;;;18.40;99.90;;;;;;5073982;28;20168;-73
2022/07/07 01:49:38;;;;;;;1.70;1.60;;;18.40;99.90;;;;;;5072440;28;20468;-73
2022/07/07 01:52:04;;;;;;;3.30;1.80;;;18.50;99.90;;;;;;5073779;28;20443;-72
2022/07/07 01:54:31;;;;;;;2.80;2.03;;;18.50;99.90;;;;;;5073620;28;20492;-73
2022/07/07 01:56:56;;;;;;;7.80;3.47;;;18.50;99.90;;;;;;5073896;28;20449;-72
2022/07/07 01:59:22;;;;;;;2.80;2.30;;;18.50;99.90;;;;;;5073751;28;20432;-72
2022/07/07 02:01:48;;;;;;;1.60;1.50;;;18.50;99.90;;;;;;5073851;28;20170;-73
2022/07/07 02:04:13;;;;;;;1.60;1.50;;;18.50;99.90;;;;;;5074091;28;20424;-73
2022/07/07 02:06:39;;;;;;;2.03;1.83;;;18.50;99.90;;;;;;5072816;28;20175;-72
2022/07/07 02:09:05;;;;;;;1.80;1.70;;;18.50;99.90;;;;;;5073482;28;20208;-72
2022/07/07 02:11:31;;;;;;;2.97;1.63;;;18.50;99.90;;;;;;5073511;28;20186;-72
2022/07/07 02:13:57;;;;;;;2.03;1.83;;;18.50;99.90;;;;;;5073493;28;20401;-73
2022/07/07 02:16:25;;;;;;;2.47;2.27;;;18.40;99.90;;;;;;5073174;28;20175;-73
2022/07/07 02:18:54;;;;;;;2.60;2.00;;;18.40;99.90;;;;;;5073459;28;20428;-74
2022/07/07 02:21:20;;;;;;;3.50;2.30;;;18.40;99.90;;;;;;5074320;28;20407;-75
2022/07/07 02:23:47;;;;;;;3.03;2.00;;;18.20;99.90;;;;;;5074201;28;20415;-75
2022/07/07 02:26:13;;;;;;;1.77;1.67;;;18.20;99.90;;;;;;5073679;28;20440;-72
2022/07/07 02:28:40;;;;;;;1.83;1.50;;;18.10;99.90;;;;;;5073121;28;20463;-72
2022/07/07 02:31:07;;;;;;;2.00;1.80;;;18.00;99.90;;;;;;5071941;28;20462;-72
2022/07/07 02:33:32;;;;;;;4.10;2.17;;;18.00;99.90;;;;;;5073127;28;20401;-73
2022/07/07 02:35:58;;;;;;;2.93;1.97;;;18.00;99.90;;;;;;5072697;28;20405;-72
2022/07/07 02:38:25;;;;;;;2.60;1.77;;;18.00;99.90;;;;;;5072928;28;20221;-72
2022/07/07 02:40:51;;;;;;;2.37;2.00;;;18.00;99.90;;;;;;5072959;28;20417;-72
2022/07/07 02:43:17;;;;;;;4.00;2.50;;;18.00;99.90;;;;;;5072920;28;20902;-72
2022/07/07 02:45:44;;;;;;;2.60;2.10;;;18.00;99.90;;;;;;5072631;28;20492;-71
2022/07/07 02:48:12;;;;;;;2.10;1.90;;;18.00;99.90;;;;;;5072700;28;20513;-73
2022/07/07 02:50:39;;;;;;;2.10;2.00;;;18.00;99.90;;;;;;5071528;28;20413;-73
2022/07/07 02:53:05;;;;;;;4.60;2.27;;;17.90;99.90;;;;;;5071411;28;20432;-74
2022/07/07 02:55:31;;;;;;;2.80;1.73;;;18.00;99.90;;;;;;5073014;28;20404;-74
2022/07/07 02:57:57;;;;;;;1.60;1.30;;;17.90;99.90;;;;;;5073759;28;20411;-73
2022/07/07 03:00:23;;;;;;;4.70;2.33;;;17.90;99.90;;;;;;5073335;28;20462;-73
2022/07/07 03:02:49;;;;;;;1.40;1.30;;;17.90;99.90;;;;;;5072237;28;20408;-73
2022/07/07 03:05:15;;;;;;;2.90;2.43;;;17.90;99.90;;;;;;5073300;28;20181;-72
2022/07/07 03:07:40;;;;;;;1.77;1.60;;;18.00;99.90;;;;;;5072561;28;20220;-74
2022/07/07 03:10:07;;;;;;;8.83;4.47;;;18.00;99.90;;;;;;5073149;28;20412;-73
2022/07/07 03:12:33;;;;;;;2.30;1.43;;;18.00;99.90;;;;;;5073406;28;20162;-74
2022/07/07 03:14:59;;;;;;;2.87;2.00;;;18.10;99.90;;;;;;5072821;28;20408;-73
2022/07/07 03:17:25;;;;;;;2.30;1.70;;;18.10;99.90;;;;;;5072934;28;20410;-74
2022/07/07 03:19:50;;;;;;;1.93;1.77;;;18.10;99.90;;;;;;5072513;28;20435;-73
2022/07/07 03:22:16;;;;;;;2.17;1.90;;;18.20;99.90;;;;;;5072811;28;20174;-73
2022/07/07 03:24:42;;;;;;;1.63;1.53;;;18.20;99.90;;;;;;5072083;28;20181;-73
2022/07/07 03:27:07;;;;;;;1.93;1.73;;;18.20;99.90;;;;;;5072868;28;20166;-73
2022/07/07 03:29:33;;;;;;;1.93;1.63;;;18.20;99.90;;;;;;5072711;28;20202;-73
2022/07/07 03:31:59;;;;;;;1.70;1.53;;;18.30;99.90;;;;;;5072856;28;20627;-73
2022/07/07 03:34:24;;;;;;;1.97;1.37;;;18.40;99.90;;;;;;5072946;28;20276;-74
2022/07/07 03:36:50;;;;;;;3.83;1.33;;;18.40;99.90;;;;;;5071650;28;20178;-74
2022/07/07 03:39:15;;;;;;;1.90;1.67;;;18.40;99.90;;;;;;5072608;28;20193;-73
2022/07/07 03:41:41;;;;;;;2.23;1.47;;;18.50;99.90;;;;;;5072140;28;20219;-71
2022/07/07 03:44:06;;;;;;;2.03;1.53;;;18.50;99.90;;;;;;5070966;28;20182;-73
2022/07/07 03:46:32;;;;;;;2.90;1.67;;;18.50;99.90;;;;;;5071924;28;20193;-74
2022/07/07 03:48:58;;;;;;;2.20;1.73;;;18.50;99.90;;;;;;5071954;28;20251;-72
2022/07/07 03:51:23;;;;;;;2.20;1.80;;;18.60;99.90;;;;;;5072099;28;20205;-74
2022/07/07 03:53:49;;;;;;;2.80;1.50;;;18.60;99.90;;;;;;5072248;28;20185;-74
2022/07/07 03:56:14;;;;;;;2.13;1.47;;;18.60;99.90;;;;;;5071683;28;20172;-72
2022/07/07 03:58:40;;;;;;;2.40;1.13;;;18.60;99.90;;;;;;5072300;28;20190;-73
2022/07/07 04:01:06;;;;;;;3.30;1.70;;;18.60;99.90;;;;;;5072256;28;20571;-73
2022/07/07 04:03:31;;;;;;;2.77;1.90;;;18.60;99.90;;;;;;5072566;28;20171;-72
2022/07/07 04:05:57;;;;;;;3.30;2.83;;;18.60;99.90;;;;;;5072703;28;20682;-73
2022/07/07 04:08:23;;;;;;;2.67;1.60;;;18.60;99.90;;;;;;5075844;28;20205;-73
2022/07/07 04:10:48;;;;;;;1.97;1.60;;;18.60;99.90;;;;;;5075900;28;20173;-72
2022/07/07 04:13:14;;;;;;;1.60;1.50;;;18.60;99.90;;;;;;5074479;28;20215;-72
2022/07/07 04:15:39;;;;;;;3.20;1.50;;;18.60;99.90;;;;;;5075528;28;20245;-72
2022/07/07 04:18:05;;;;;;;2.37;1.60;;;18.60;99.90;;;;;;5075786;28;20201;-73
2022/07/07 04:20:30;;;;;;;1.30;1.20;;;18.50;99.90;;;;;;5075681;28;20166;-73
2022/07/07 04:22:57;;;;;;;2.03;1.67;;;18.50;99.90;;;;;;5075649;28;20562;-73
2022/07/07 04:25:22;;;;;;;1.87;1.63;;;18.50;99.90;;;;;;5075604;28;20174;-73
2022/07/07 04:27:48;;;;;;;1.70;1.60;;;18.50;99.90;;;;;;5076036;28;20510;-74
2022/07/07 04:30:14;;;;;;;3.87;1.70;;;18.50;99.90;;;;;;5076187;28;20170;-73
2022/07/07 04:32:39;;;;;;;1.40;1.30;;;18.60;99.90;;;;;;5074983;28;20174;-73
2022/07/07 04:35:06;;;;;;;1.80;1.50;;;18.60;99.90;;;;;;5075866;28;20171;-73
2022/07/07 04:37:31;;;;;;;1.90;1.43;;;18.60;99.90;;;;;;5075822;28;20223;-72
2022/07/07 04:39:57;;;;;;;2.30;2.10;;;18.60;99.90;;;;;;5075425;28;20424;-73
2022/07/07 04:42:22;;;;;;;1.67;1.57;;;18.60;99.90;;;;;;5075025;28;20163;-73
2022/07/07 04:44:48;;;;;;;3.20;2.70;;;18.60;99.90;;;;;;5075623;28;20300;-73
2022/07/07 04:47:13;;;;;;;6.50;2.50;;;18.50;99.90;;;;;;5074050;28;20223;-72
2022/07/07 04:49:39;;;;;;;5.20;2.73;;;18.50;99.90;;;;;;5074933;28;20237;-72
2022/07/07 04:52:04;;;;;;;1.83;1.27;;;18.40;99.90;;;;;;5075843;28;20173;-73
2022/07/07 04:54:30;;;;;;;1.50;1.33;;;18.40;99.90;;;;;;5075293;28;20249;-73
2022/07/07 04:56:55;;;;;;;1.60;1.50;;;18.40;99.90;;;;;;5075662;28;20237;-73
2022/07/07 04:59:21;;;;;;;2.03;1.80;;;18.40;99.90;;;;;;5075716;28;20198;-73
2022/07/07 05:01:47;;;;;;;1.60;1.50;;;18.50;99.90;;;;;;5074971;28;20182;-72
2022/07/07 05:04:12;;;;;;;1.87;1.67;;;18.40;99.90;;;;;;5073427;28;20174;-73
2022/07/07 05:06:38;;;;;;;2.37;1.40;;;18.50;99.90;;;;;;5073484;28;20261;-74
2022/07/07 05:09:03;;;;;;;1.53;1.43;;;18.50;99.90;;;;;;5074542;28;20210;-72
2022/07/07 05:11:29;;;;;;;1.80;1.27;;;18.50;99.90;;;;;;5074728;28;20245;-73
2022/07/07 05:13:54;;;;;;;2.20;1.77;;;18.50;99.90;;;;;;5074686;28;20686;-73
2022/07/07 05:16:20;;;;;;;6.30;1.30;;;18.50;99.90;;;;;;5073915;28;20628;-72
2022/07/07 05:18:45;;;;;;;2.80;1.67;;;18.60;99.90;;;;;;5074575;28;20198;-73
2022/07/07 05:21:11;;;;;;;1.97;1.30;;;18.60;99.90;;;;;;5074434;28;20209;-73
2022/07/07 05:23:37;;;;;;;2.37;2.00;;;18.60;99.90;;;;;;5074561;28;20170;-73
2022/07/07 05:26:02;;;;;;;2.77;1.43;;;18.60;99.90;;;;;;5074359;28;20647;-73
2022/07/07 05:28:30;;;;;;;2.53;1.40;;;18.60;99.90;;;;;;5074998;28;20205;-73
2022/07/07 05:30:55;;;;;;;1.17;1.00;;;18.70;99.90;;;;;;5073533;28;20518;-73
2022/07/07 05:33:21;;;;;;;2.10;1.57;;;18.80;99.90;;;;;;5074310;28;20412;-73
2022/07/07 05:35:47;;;;;;;2.30;1.00;;;18.90;99.90;;;;;;5074110;28;20162;-74
2022/07/07 05:38:12;;;;;;;1.60;1.20;;;19.00;99.90;;;;;;5074070;28;20750;-73
2022/07/07 05:40:38;;;;;;;1.43;1.23;;;19.00;99.90;;;;;;5072961;28;20172;-74
2022/07/07 05:43:03;;;;;;;1.90;1.40;;;19.00;99.90;;;;;;5074098;28;20224;-72
2022/07/07 05:45:29;;;;;;;2.87;1.73;;;19.00;99.90;;;;;;5073119;28;20174;-73
2022/07/07 05:47:55;;;;;;;2.60;2.03;;;19.00;99.90;;;;;;5074380;28;20646;-73
2022/07/07 05:50:20;;;;;;;2.17;1.40;;;19.00;99.90;;;;;;5074591;28;20173;-74
2022/07/07 05:52:46;;;;;;;1.63;1.53;;;19.00;99.90;;;;;;5074350;28;20190;-74
2022/07/07 05:55:12;;;;;;;2.43;1.93;;;19.10;99.90;;;;;;5073761;28;20587;-73
2022/07/07 05:57:37;;;;;;;2.80;2.20;;;19.00;99.90;;;;;;5073878;28;20643;-73
2022/07/07 06:00:04;;;;;;;4.00;2.23;;;18.90;99.90;;;;;;5073778;28;20239;-74
2022/07/07 06:02:30;;;;;;;1.73;1.60;;;18.80;99.90;;;;;;5073783;28;20704;-73
2022/07/07 06:04:55;;;;;;;4.07;2.20;;;18.70;99.90;;;;;;5074728;28;20479;-74
2022/07/07 06:07:21;;;;;;;2.10;1.80;;;18.60;99.90;;;;;;5074548;28;20164;-72
2022/07/07 06:09:47;;;;;;;2.43;2.00;;;18.40;99.90;;;;;;5073567;28;20198;-71
2022/07/07 06:12:12;;;;;;;2.63;2.10;;;18.40;99.90;;;;;;5073536;28;20526;-72
2022/07/07 06:14:38;;;;;;;2.43;2.23;;;18.20;99.90;;;;;;5073229;28;20162;-73
2022/07/07 06:17:04;;;;;;;2.27;1.57;;;18.10;99.90;;;;;;5072177;28;20216;-74
2022/07/07 06:19:29;;;;;;;2.17;1.53;;;18.10;99.90;;;;;;5073331;28;20221;-73
2022/07/07 06:21:55;;;;;;;3.53;1.73;;;18.00;99.90;;;;;;5073341;28;20170;-73
2022/07/07 06:24:20;;;;;;;2.23;1.93;;;18.00;99.90;;;;;;5073024;28;20196;-72
2022/07/07 06:26:46;;;;;;;3.70;2.27;;;18.00;99.90;;;;;;5071982;28;20170;-73
2022/07/07 06:29:12;;;;;;;2.87;2.67;;;18.10;99.90;;;;;;5072164;28;20606;-71
2022/07/07 06:31:37;;;;;;;2.70;2.50;;;18.30;99.90;;;;;;5071962;28;20668;-70
2022/07/07 06:34:03;;;;;;;4.00;2.93;;;18.40;99.90;;;;;;5073117;28;20173;-71
2022/07/07 06:36:28;;;;;;;2.70;2.50;;;18.50;99.90;;;;;;5071570;28;20675;-72
2022/07/07 06:38:54;;;;;;;2.77;2.37;;;18.70;99.90;;;;;;5071693;28;20247;-73
2022/07/07 06:41:23;;;;;;;3.27;2.50;;;18.80;99.90;;;;;;5073011;28;20531;-72
2022/07/07 06:43:50;;;;;;;3.57;2.13;;;18.90;99.90;;;;;;5072996;28;20177;-73
2022/07/07 06:46:15;;;;;;;2.37;1.80;;;19.00;99.90;;;;;;5071355;28;20412;-73
2022/07/07 06:48:41;;;;;;;3.10;2.10;;;19.10;99.90;;;;;;5072744;28;20452;-73
2022/07/07 06:51:06;;;;;;;2.50;2.30;;;19.30;99.90;;;;;;5072753;28;20162;-73
2022/07/07 06:53:32;;;;;;;2.17;1.80;;;19.50;99.90;;;;;;5071163;28;20185;-73
2022/07/07 06:55:58;;;;;;;1.57;1.30;;;19.60;99.90;;;;;;5071212;28;20193;-73
2022/07/07 06:58:23;;;;;;;2.23;2.03;;;19.60;99.90;;;;;;5071292;28;20828;-72
2022/07/07 07:00:49;;;;;;;2.30;2.10;;;19.50;99.90;;;;;;5072690;28;20189;-72
2022/07/07 07:03:14;;;;;;;2.30;2.10;;;19.50;99.90;;;;;;5072498;28;20170;-72
2022/07/07 07:05:40;;;;;;;3.80;2.13;;;19.50;99.90;;;;;;5070915;28;20248;-72
2022/07/07 07:08:06;;;;;;;1.83;1.70;;;19.60;99.90;;;;;;5072374;28;20206;-73
2022/07/07 07:10:31;;;;;;;1.73;1.63;;;19.70;99.90;;;;;;5072558;28;20159;-73
2022/07/07 07:12:57;;;;;;;1.73;1.63;;;19.80;99.90;;;;;;5071279;28;20170;-73
2022/07/07 07:15:22;;;;;;;2.13;1.93;;;20.00;99.90;;;;;;5072126;28;20221;-73
2022/07/07 07:17:48;;;;;;;2.10;1.90;;;20.00;99.90;;;;;;5072342;28;20166;-73
2022/07/07 07:20:14;;;;;;;2.17;1.10;;;20.50;99.90;;;;;;5072272;28;20174;-73
2022/07/07 07:22:40;;;;;;;1.90;1.30;;;20.90;99.90;;;;;;5071049;28;20639;-74
2022/07/07 07:25:07;;;;;;;1.40;1.10;;;21.60;99.90;;;;;;5072072;28;20404;-73
2022/07/07 07:27:34;;;;;;;1.20;0.97;;;22.10;99.90;;;;;;5072321;28;20401;-72
2022/07/07 07:30:00;;;;;;;1.50;1.40;;;22.10;99.90;;;;;;5072381;28;20412;-72
2022/07/07 07:32:25;;;;;;;1.50;1.23;;;22.10;99.90;;;;;;5072323;28;20457;-72
2022/07/07 07:34:51;;;;;;;2.23;1.50;;;21.80;99.90;;;;;;5071984;28;20162;-73
2022/07/07 07:37:16;;;;;;;1.30;1.00;;;21.50;99.90;;;;;;5072138;28;20311;-72
2022/07/07 07:39:42;;;;;;;1.40;1.00;;;21.40;99.90;;;;;;5071842;28;20193;-72
2022/07/07 07:42:08;;;;;;;1.30;1.10;;;21.10;99.90;;;;;;5072060;28;20177;-73
2022/07/07 07:47:17;;;;;;;1.33;1.00;;;20.80;99.90;;;;;;5072101;28;20188;-72
2022/07/07 07:49:43;;;;;;;1.67;1.30;;;20.90;99.90;;;;;;5071846;28;20456;-73
2022/07/07 07:52:08;;;;;;;1.23;1.10;;;21.00;99.90;;;;;;5071861;28;20162;-73
2022/07/07 07:54:34;;;;;;;1.10;1.00;;;21.40;99.90;;;;;;5071494;28;20452;-73
2022/07/07 07:57:00;;;;;;;1.40;1.13;;;21.80;99.90;;;;;;5071886;28;20162;-73
2022/07/07 07:59:25;;;;;;;1.67;1.33;;;22.00;99.90;;;;;;5071636;28;20686;-73
2022/07/07 08:01:51;;;;;;;1.70;1.23;;;21.80;99.90;;;;;;5071915;28;20198;-73
2022/07/07 08:04:17;;;;;;;1.70;1.40;;;21.50;99.90;;;;;;5071622;28;20218;-73
2022/07/07 08:06:42;;;;;;;1.30;1.00;;;21.10;99.90;;;;;;5072083;28;20193;-74
2022/07/07 08:09:08;;;;;;;1.67;1.03;;;20.60;99.90;;;;;;5070500;28;20212;-72
2022/07/07 08:11:33;;;;;;;2.57;0.90;;;20.40;99.90;;;;;;5071782;28;20273;-73
2022/07/07 08:13:59;;;;;;;2.47;0.80;;;20.20;99.90;;;;;;5070679;28;20163;-72
2022/07/07 08:16:24;;;;;;;2.17;0.80;;;20.20;99.90;;;;;;5071381;28;20194;-72
2022/07/07 08:18:50;;;;;;;0.90;0.60;;;20.10;99.90;;;;;;5071621;28;20193;-73
2022/07/07 08:21:16;;;;;;;1.10;0.80;;;20.40;99.90;;;;;;5071971;28;20252;-72
2022/07/07 08:23:41;;;;;;;1.30;1.03;;;20.70;99.90;;;;;;5071757;28;20225;-73
2022/07/07 08:26:07;;;;;;;1.00;0.70;;;21.20;99.90;;;;;;5071310;28;20532;-73
2022/07/07 08:28:32;;;;;;;0.90;0.60;;;21.50;99.90;;;;;;5070262;28;20809;-72
2022/07/07 08:30:58;;;;;;;5.53;1.77;;;22.10;99.90;;;;;;5071604;28;20170;-73
2022/07/07 08:33:24;;;;;;;2.60;1.17;;;22.50;99.90;;;;;;5071617;28;20170;-73
2022/07/07 08:35:49;;;;;;;1.30;1.07;;;22.80;99.90;;;;;;5071574;28;20523;-73
2022/07/07 08:38:15;;;;;;;1.00;0.90;;;23.40;99.90;;;;;;5071467;28;20265;-73
2022/07/07 08:40:40;;;;;;;2.40;1.47;;;23.70;99.90;;;;;;5071551;28;20216;-71
2022/07/07 08:43:06;;;;;;;1.13;1.03;;;24.00;99.90;;;;;;5071468;28;20175;-71
2022/07/07 08:45:32;;;;;;;1.50;1.20;;;24.40;99.90;;;;;;5069901;28;20176;-72
2022/07/07 08:47:59;;;;;;;1.20;1.10;;;24.40;99.90;;;;;;5071287;28;20663;-71
2022/07/07 08:50:26;;;;;;;1.20;1.00;;;24.30;99.90;;;;;;5071482;28;20503;-72
2022/07/07 08:52:54;;;;;;;1.40;1.20;;;24.60;99.90;;;;;;5074335;28;20455;-71
2022/07/07 08:55:23;;;;;;;2.40;1.20;;;24.70;99.90;;;;;;5074874;28;20392;-72
2022/07/07 08:57:51;;;;;;;1.33;1.23;;;24.40;99.90;;;;;;5075090;28;20400;-72
2022/07/07 09:00:17;;;;;;;2.50;1.03;;;23.90;99.90;;;;;;5073660;28;20448;-71
2022/07/07 09:02:44;;;;;;;1.30;1.20;;;23.30;99.90;;;;;;5074920;28;20408;-71
2022/07/07 09:05:09;;;;;;;1.60;1.07;;;22.90;99.90;;;;;;5074698;28;20766;-72
2022/07/07 09:07:49;;;;;;;1.13;1.00;;;22.50;99.90;;;;;;5074799;28;20404;-72
2022/07/07 09:10:29;;;;;;;2.70;0.90;;;22.10;99.90;;;;;;5073696;28;20166;-72
2022/07/07 09:12:55;;;;;;;1.27;1.00;;;22.00;99.90;;;;;;5074829;28;20404;-72
2022/07/07 09:15:21;;;;;;;4.13;1.00;;;21.90;99.90;;;;;;5074472;28;20419;-72
2022/07/07 09:17:47;;;;;;;1.90;0.97;;;21.90;99.90;;;;;;5074834;28;20400;-72
2022/07/07 09:20:12;;;;;;;1.10;0.90;;;22.10;99.90;;;;;;5074649;28;20173;-72
2022/07/07 09:22:55;;;;;;;1.20;0.80;;;22.50;99.90;;;;;;5075022;28;20641;-70
2022/07/07 09:25:25;;;;;;;2.30;0.80;;;23.10;99.90;;;;;;5073561;28;20162;-72
2022/07/07 09:27:57;;;;;;;1.67;0.63;;;23.90;99.90;;;;;;5074982;28;20809;-72
2022/07/07 09:30:42;;;;;;;1.00;0.70;;;24.90;99.90;;;;;;5075019;28;20825;-71
2022/07/07 09:33:10;;;;;;;1.37;0.83;;;25.50;99.90;;;;;;5075244;28;20435;-72
2022/07/07 09:38:23;;;;;;;1.50;1.20;;;26.10;99.90;;;;;;5075251;28;20489;-72
2022/07/07 09:40:54;;;;;;;1.50;1.10;;;25.80;99.90;;;;;;5073760;28;20857;-71
2022/07/07 09:43:20;;;;;;;1.00;0.80;;;25.10;99.90;;;;;;5074567;28;20928;-71
2022/07/07 09:46:23;;;;;;;1.03;0.77;;;24.80;99.90;;;;;;5074045;28;20499;-71
2022/07/07 09:48:54;;;;;;;1.87;0.90;;;24.10;99.90;;;;;;5074408;28;20539;-70
2022/07/07 09:51:22;;;;;;;1.00;0.70;;;23.80;99.90;;;;;;5074480;28;20757;-71
2022/07/07 09:54:03;;;;;;;2.97;0.73;;;23.60;99.90;;;;;;5074829;28;20455;-71
2022/07/07 09:56:37;;;;;;;1.77;0.90;;;24.30;99.90;;;;;;5074480;28;20813;-72
2022/07/07 09:59:08;;;;;;;1.00;0.80;;;25.40;99.90;;;;;;5074280;28;20420;-72
2022/07/07 10:01:35;;;;;;;1.20;0.70;;;25.60;99.90;;;;;;5075342;28;20425;-71
2022/07/07 10:04:07;;;;;;;0.97;0.70;;;25.90;99.90;;;;;;5074002;28;20484;-72
2022/07/07 10:06:35;;;;;;;1.77;0.80;;;25.50;99.90;;;;;;5074307;28;20405;-71
2022/07/07 10:09:06;;;;;;;1.30;0.70;;;25.60;99.90;;;;;;5074343;28;20452;-72
2022/07/07 10:11:52;;;;;;;2.30;0.90;;;25.90;99.90;;;;;;5074539;28;20463;-70
2022/07/07 10:14:33;;;;;;;1.60;0.87;;;26.20;99.90;;;;;;5074651;28;20400;-72
2022/07/07 10:17:00;;;;;;;1.77;0.90;;;26.80;99.90;;;;;;5074485;28;20401;-72
2022/07/07 10:19:26;;;;;;;1.87;1.00;;;27.80;99.90;;;;;;5074065;28;20424;-72
2022/07/07 10:21:56;;;;;;;1.50;1.10;;;28.40;96.10;;;;;;5073976;28;20407;-71
2022/07/07 10:24:26;;;;;;;2.77;0.93;;;28.70;95.00;;;;;;5072022;28;20673;-72
2022/07/07 10:26:59;;;;;;;1.43;0.83;;;29.00;87.10;;;;;;5073749;28;20400;-73
2022/07/07 10:29:45;;;;;;;1.10;1.00;;;28.60;84.40;;;;;;5073547;28;20478;-72
2022/07/07 10:32:17;;;;;;;1.67;0.97;;;27.80;86.40;;;;;;5073687;28;20733;-72
2022/07/07 10:34:53;;;;;;;1.40;1.10;;;27.20;90.60;;;;;;5073112;28;20444;-71
2022/07/07 10:37:20;;;;;;;1.00;0.90;;;26.20;95.50;;;;;;5073404;28;20404;-71
2022/07/07 10:39:53;;;;;;;1.07;0.80;;;25.70;99.90;;;;;;5073277;28;20925;-71
2022/07/07 10:43:06;;;;;;;1.10;0.80;;;25.40;99.90;;;;;;5071912;28;20413;-72
2022/07/07 10:45:32;;;;;;;1.10;0.80;;;24.80;99.90;;;;;;5062452;28;20771;-71
2022/07/07 10:47:58;;;;;;;2.70;1.00;;;24.80;99.90;;;;;;5073417;28;20444;-72
2022/07/07 10:50:31;;;;;;;1.13;0.80;;;25.20;99.90;;;;;;5073514;28;20435;-72
2022/07/07 10:52:57;;;;;;;0.93;0.70;;;25.90;99.90;;;;;;5073274;28;20431;-70
2022/07/07 10:55:56;;;;;;;3.37;1.00;;;26.50;99.90;;;;;;5072154;28;20831;-71
2022/07/07 10:58:58;;;;;;;1.77;1.20;;;26.80;99.90;;;;;;5073500;28;20424;-71
2022/07/07 11:01:25;;;;;;;1.30;0.90;;;27.00;99.90;;;;;;5073356;28;20465;-71
2022/07/07 11:03:52;;;;;;;1.30;0.93;;;27.00;97.80;;;;;;5073740;28;20456;-72
2022/07/07 11:06:18;;;;;;;1.00;0.80;;;26.70;96.40;;;;;;5073399;28;20423;-72
2022/07/07 11:08:55;;;;;;;1.00;0.77;;;26.30;99.20;;;;;;5072860;28;20460;-71
2022/07/07 11:11:20;;;;;;;1.10;0.90;;;25.40;99.90;;;;;;5072712;28;20400;-71
2022/07/07 11:13:46;;;;;;;2.27;0.90;;;24.70;99.90;;;;;;5071043;28;20502;-71
2022/07/07 11:16:22;;;;;;;1.63;1.00;;;24.00;99.90;;;;;;5071370;28;20174;-70
2022/07/07 11:18:56;;;;;;;1.13;0.80;;;23.50;99.90;;;;;;5072849;28;20786;-71
2022/07/07 11:21:42;;;;;;;0.93;0.70;;;22.90;99.90;;;;;;5071607;28;20455;-71
2022/07/07 11:24:19;;;;;;;2.40;0.80;;;22.40;99.90;;;;;;5072643;28;20443;-71
2022/07/07 11:26:57;;;;;;;1.67;0.73;;;21.90;99.90;;;;;;5071518;28;20408;-70
2022/07/07 11:29:23;;;;;;;1.90;1.17;;;21.60;99.90;;;;;;5072734;28;20455;-71
2022/07/07 11:31:57;;;;;;;1.40;0.90;;;21.30;99.90;;;;;;5072613;28;20411;-70
2022/07/07 11:34:22;;;;;;;2.00;1.00;;;21.20;99.90;;;;;;5072682;28;20574;-71
2022/07/07 11:36:48;;;;;;;1.07;0.70;;;21.20;99.90;;;;;;5072683;28;20439;-71
2022/07/07 11:39:13;;;;;;;1.00;0.77;;;21.30;99.90;;;;;;5071490;28;20222;-71
2022/07/07 11:41:41;;;;;;;1.10;0.80;;;21.40;99.90;;;;;;5071672;28;20197;-71
2022/07/07 11:44:16;;;;;;;1.07;0.80;;;21.60;99.90;;;;;;5072140;28;20537;-71
2022/07/07 11:46:42;;;;;;;1.17;0.93;;;22.00;99.90;;;;;;5070936;28;20420;-72
2022/07/07 11:49:13;;;;;;;2.13;0.90;;;23.30;99.90;;;;;;5072151;28;20455;-72
2022/07/07 11:51:38;;;;;;;1.10;0.87;;;24.50;99.90;;;;;;5071079;28;20204;-70
2022/07/07 11:54:05;;;;;;;1.00;0.70;;;25.20;99.90;;;;;;5070799;28;20479;-72
2022/07/07 11:56:32;;;;;;;1.00;0.70;;;25.10;99.90;;;;;;5071861;28;20678;-72
2022/07/07 11:58:59;;;;;;;1.40;1.10;;;24.90;99.90;;;;;;5071989;28;20763;-72
2022/07/07 12:01:29;;;;;;;1.10;1.00;;;24.60;99.90;;;;;;5072148;28;20408;-71
2022/07/07 12:03:55;;;;;;;1.10;0.87;;;24.40;99.90;;;;;;5071559;28;20408;-71
2022/07/07 12:06:24;;;;;;;1.87;1.00;;;24.40;99.90;;;;;;5070820;28;20416;-72
2022/07/07 12:08:50;;;;;;;1.20;1.10;;;24.20;99.90;;;;;;5071776;28;20198;-71
2022/07/07 12:11:19;;;;;;;1.67;1.23;;;24.00;99.90;;;;;;5071950;28;20401;-72
2022/07/07 12:13:45;;;;;;;1.67;1.10;;;23.90;99.90;;;;;;5071972;28;20625;-71
2022/07/07 12:16:12;;;;;;;2.30;1.10;;;23.80;99.90;;;;;;5071548;28;20491;-71
2022/07/07 12:18:40;;;;;;;1.93;1.10;;;23.80;99.90;;;;;;5071710;28;20194;-71
2022/07/07 12:21:11;;;;;;;1.47;0.70;;;24.00;99.90;;;;;;5072066;28;20425;-71
2022/07/07 12:23:40;;;;;;;3.60;1.30;;;24.40;99.90;;;;;;5071893;28;20396;-71
2022/07/07 12:26:17;;;;;;;1.10;0.90;;;24.50;99.90;;;;;;5071918;28;20428;-70
2022/07/07 12:28:44;;;;;;;1.30;0.90;;;24.50;99.90;;;;;;5075535;28;20544;-71
2022/07/07 12:31:16;;;;;;;3.40;1.10;;;24.40;99.90;;;;;;5075765;28;20756;-71
2022/07/07 12:33:42;;;;;;;2.50;1.20;;;24.00;99.90;;;;;;5075427;28;20408;-71
2022/07/07 12:36:21;;;;;;;1.00;0.83;;;23.70;99.90;;;;;;5073889;28;20408;-72
2022/07/07 12:38:51;;;;;;;1.47;1.00;;;23.00;99.90;;;;;;5074095;28;20736;-69
2022/07/07 12:41:20;;;;;;;1.50;1.10;;;22.50;99.90;;;;;;5076035;28;20430;-70
2022/07/07 12:43:46;;;;;;;1.50;1.40;;;22.10;99.90;;;;;;5076633;28;20783;-70
2022/07/07 12:46:12;;;;;;;1.67;1.00;;;21.90;99.90;;;;;;5075859;28;20407;-70
2022/07/07 12:48:45;;;;;;;1.43;1.00;;;22.00;99.90;;;;;;5075227;28;20273;-70
2022/07/07 12:51:11;;;;;;;1.47;1.10;;;22.10;99.90;;;;;;5073986;28;20230;-70
2022/07/07 12:53:38;;;;;;;1.40;1.13;;;22.30;99.90;;;;;;5075051;28;20515;-70
2022/07/07 12:56:08;;;;;;;2.07;1.07;;;22.50;99.90;;;;;;5073545;28;20173;-69